INDIA METEOROLOGICAL DEPARTMENT, R.M.C. NEW DELHI
Dated:21 - 8 - 2017
METARS OF ALTERNATE AIRPORTS
Delhi      
VIDP 211530Z 10006KT 3500 HZ FEW030 SCT100 32/26 Q1002 NOSIG=
Amritsar   
VIAR 211530Z 00000KT 5000 BR FEW035 29/29 Q1001 NOSIG=
Lucknow    
VILK 211430Z 10004KT 3000 HZ SCT020 BKN100 31/27 Q1000 NOSIG=
Jaipur     
VIJP 211530Z 10006KT 4000 HZ SCT030 SCT090 31/24 Q1002 NOSIG=
Ahmedabad  
VAAH 211530Z 18003KT 4000 FBLRA SCT010 SCT018 OVC070 29/27 Q0999 TEMPO 3000=
Udaipur    
VAUD 211500Z 04006KT 3000 TSRA SCT025 SCT030 FEW035CB 28/26 Q1002 TEMPO 20 00 TSRA=
Mumbai     
VABB 211530Z 14007KT 2500 VCSH FEW012 SCT018 FEW025TCU OVC080 26/25 Q1002 TEMPO 1500 RA=